Dykesville, Louisiana
Current Conditions -  °F | °C
As of 10:35 AM on Wednesday 26 Nov 2014 (Local Time) from KMNE Reporting Station
Clear Clear  
Wind Chill: 61°   Ceiling: Unl
Heat Index: 61°   Visibility: 10mi
Dew Point: 34°   Wind: 9mph
Humidity: 36%   Direction: 230°SW
Pressure: 30.12"   Gusts: 22mph
Location:  32.9128°N, 93.0286°W
Report Text: KMNE 261635Z AUTO 23008G19KT 10SM CLR 16/01 A3012 RMK AO2
Loading
Personal Weather Stations






























Interactive Weather Map New forecast layout! Learn more

10-Day Weather Forecast

Advertisements
Track Severe Weather on mobile